createdAt,value
2023-03-13T00:01:07.825Z,14.00
2023-03-13T00:04:28.326Z,14.00
2023-03-13T00:07:02.419Z,14.00
2023-03-13T00:09:34.894Z,14.00
2023-03-13T00:12:23.823Z,14.00
2023-03-13T00:15:22.814Z,14.00
2023-03-13T00:17:55.137Z,14.00
2023-03-13T00:20:40.688Z,14.10
2023-03-13T00:23:13.904Z,14.10
2023-03-13T00:26:00.140Z,14.10
2023-03-13T00:28:57.343Z,14.10
2023-03-13T00:31:43.770Z,14.10
2023-03-13T00:34:31.128Z,14.10
2023-03-13T00:37:33.582Z,14.10
2023-03-13T00:40:19.436Z,14.10
2023-03-13T00:42:52.692Z,14.10
2023-03-13T00:45:43.258Z,14.10
2023-03-13T00:48:48.279Z,14.10
2023-03-13T00:51:45.051Z,14.10
2023-03-13T00:54:18.417Z,14.10
2023-03-13T00:57:03.790Z,14.10
2023-03-13T01:00:02.479Z,14.10
2023-03-13T01:03:01.892Z,14.10
2023-03-13T01:05:35.526Z,14.10
2023-03-13T01:08:28.583Z,14.10
2023-03-13T01:11:18.384Z,14.20
2023-03-13T01:13:59.896Z,14.20
2023-03-13T01:16:49.283Z,14.20
2023-03-13T01:19:33.837Z,14.20
2023-03-13T01:22:04.556Z,14.20
2023-03-13T01:25:03.848Z,14.20
2023-03-13T01:27:54.291Z,14.20
2023-03-13T01:30:35.349Z,14.30
2023-03-13T01:33:06.138Z,14.30
2023-03-13T01:35:37.962Z,14.30
2023-03-13T01:38:23.905Z,14.30
2023-03-13T01:40:56.489Z,14.30
2023-03-13T01:43:55.901Z,14.40
2023-03-13T01:46:29.937Z,14.40
2023-03-13T01:49:09.860Z,14.40
2023-03-13T01:52:15.844Z,14.40
2023-03-13T01:55:04.413Z,14.40
2023-03-13T01:57:54.097Z,14.40
2023-03-13T02:00:37.781Z,14.40
2023-03-13T02:03:25.550Z,14.40
2023-03-13T02:06:06.227Z,14.30
2023-03-13T02:08:49.907Z,14.30
2023-03-13T02:11:50.109Z,14.30
2023-03-13T02:14:40.470Z,14.30
2023-03-13T02:17:38.443Z,14.30
2023-03-13T02:20:28.193Z,14.30
2023-03-13T02:23:10.541Z,14.20
2023-03-13T02:25:50.925Z,14.20
2023-03-13T02:28:52.699Z,14.10
2023-03-13T02:31:49.724Z,14.00
2023-03-13T02:34:41.838Z,13.90
2023-03-13T02:37:37.074Z,13.90
2023-03-13T02:40:32.994Z,13.80
2023-03-13T02:43:38.866Z,13.80
2023-03-13T02:46:32.787Z,13.80
2023-03-13T02:49:30.274Z,13.70
2023-03-13T02:52:27.842Z,13.70
2023-03-13T02:55:22.775Z,13.70
2023-03-13T02:57:54.892Z,13.70
2023-03-13T03:00:54.427Z,13.70
2023-03-13T03:03:33.492Z,13.60
2023-03-13T03:06:18.567Z,13.60
2023-03-13T03:08:59.768Z,13.60
2023-03-13T03:11:46.285Z,13.50
2023-03-13T03:14:38.170Z,13.50
2023-03-13T03:17:37.708Z,13.50
2023-03-13T03:20:29.085Z,13.50
2023-03-13T03:23:15.440Z,13.50
2023-03-13T03:25:48.523Z,13.50
2023-03-13T03:28:44.507Z,13.50
2023-03-13T03:31:33.748Z,13.50
2023-03-13T03:34:37.970Z,13.60
2023-03-13T03:37:20.242Z,13.60
2023-03-13T03:40:05.945Z,13.60
2023-03-13T03:43:10.324Z,13.70
2023-03-13T03:45:40.768Z,13.70
2023-03-13T03:48:11.088Z,13.70
2023-03-13T03:50:53.648Z,13.70
2023-03-13T03:53:37.600Z,13.70
2023-03-13T03:56:20.874Z,13.80
2023-03-13T03:59:04.274Z,13.80
2023-03-13T04:02:00.266Z,13.80
2023-03-13T04:04:42.837Z,13.80
2023-03-13T04:07:45.421Z,13.70
2023-03-13T04:10:42.284Z,13.70
2023-03-13T04:13:21.909Z,13.60
2023-03-13T04:16:08.000Z,13.50
2023-03-13T04:18:43.825Z,13.30
2023-03-13T04:21:25.114Z,13.30
2023-03-13T04:24:16.767Z,13.20
2023-03-13T04:26:58.152Z,13.10
2023-03-13T04:29:51.830Z,13.10
2023-03-13T04:32:54.293Z,13.00
2023-03-13T04:36:05.535Z,13.00
2023-03-13T04:38:58.703Z,13.00
2023-03-13T04:42:04.932Z,13.00
2023-03-13T04:44:57.696Z,13.00
2023-03-13T04:47:56.758Z,13.00
2023-03-13T04:51:07.126Z,13.10
2023-03-13T04:54:15.732Z,13.10
2023-03-13T04:57:26.880Z,13.10
2023-03-13T05:00:14.482Z,13.20
2023-03-13T05:03:02.378Z,13.20
2023-03-13T05:05:57.721Z,13.20
2023-03-13T05:08:53.368Z,13.20
2023-03-13T05:12:01.025Z,13.30
2023-03-13T05:15:01.111Z,13.30
2023-03-13T05:17:49.931Z,13.30
2023-03-13T05:20:36.492Z,13.40
2023-03-13T05:23:38.737Z,13.40
2023-03-13T05:26:45.341Z,13.40
2023-03-13T05:29:41.290Z,13.40
2023-03-13T05:32:46.135Z,13.50
2023-03-13T05:35:40.201Z,13.50
2023-03-13T05:38:33.118Z,13.50
2023-03-13T05:41:19.565Z,13.60
2023-03-13T05:44:20.696Z,13.60
2023-03-13T05:47:10.984Z,13.60
2023-03-13T05:49:55.789Z,13.60
2023-03-13T05:52:30.837Z,13.60
2023-03-13T05:55:16.443Z,13.70
2023-03-13T05:58:11.060Z,13.70
2023-03-13T06:01:02.054Z,13.70
2023-03-13T06:04:06.607Z,13.70
2023-03-13T06:07:09.522Z,13.80
2023-03-13T06:10:07.645Z,13.80
2023-03-13T06:12:41.436Z,13.80
2023-03-13T06:15:32.017Z,13.80
2023-03-13T06:18:43.677Z,13.80
2023-03-13T06:21:29.241Z,13.90
2023-03-13T06:24:35.987Z,13.90
2023-03-13T06:27:24.459Z,14.00
2023-03-13T06:30:20.961Z,14.00
2023-03-13T06:32:53.799Z,14.00
2023-03-13T06:35:53.130Z,14.00
2023-03-13T06:38:46.509Z,14.10
2023-03-13T06:41:33.495Z,14.10
2023-03-13T06:44:21.920Z,14.10
2023-03-13T06:47:10.618Z,14.20
2023-03-13T06:49:59.512Z,14.20
2023-03-13T06:52:47.218Z,14.20
2023-03-13T06:55:42.928Z,14.20
2023-03-13T06:58:53.074Z,14.30
2023-03-13T07:01:32.233Z,14.30
2023-03-13T07:04:16.815Z,14.30
2023-03-13T07:06:47.886Z,14.40
2023-03-13T07:09:32.557Z,14.40
2023-03-13T07:12:22.624Z,14.40
2023-03-13T07:15:22.254Z,14.50
2023-03-13T07:18:06.800Z,14.50
2023-03-13T07:21:05.288Z,14.60
2023-03-13T07:23:58.082Z,14.60
2023-03-13T07:27:07.186Z,14.70
2023-03-13T07:30:17.240Z,14.60
2023-03-13T07:33:14.395Z,14.70
2023-03-13T07:35:58.330Z,14.70
2023-03-13T07:38:33.663Z,14.70
2023-03-13T07:41:23.823Z,14.80
2023-03-13T07:44:10.786Z,14.80
2023-03-13T07:47:00.592Z,14.80
2023-03-13T07:49:34.175Z,14.80
2023-03-13T07:52:23.438Z,14.90
2023-03-13T07:55:06.959Z,14.90
2023-03-13T07:57:48.124Z,14.90
2023-03-13T08:00:46.134Z,14.90
2023-03-13T08:03:36.699Z,15.00
2023-03-13T08:06:41.464Z,15.00
2023-03-13T08:09:25.675Z,15.00
2023-03-13T08:11:57.213Z,15.00
2023-03-13T08:14:31.586Z,15.00
2023-03-13T08:17:16.058Z,15.10
2023-03-13T08:20:07.020Z,15.10
2023-03-13T08:22:50.873Z,15.20
2023-03-13T08:25:43.107Z,15.20
2023-03-13T08:28:31.337Z,15.30
2023-03-13T08:31:13.749Z,15.40
2023-03-13T08:33:55.641Z,15.40
2023-03-13T08:37:02.314Z,15.50
2023-03-13T08:39:58.491Z,15.50
2023-03-13T08:42:45.848Z,15.60
2023-03-13T08:45:32.796Z,15.60
2023-03-13T08:48:23.129Z,15.60
2023-03-13T08:51:09.327Z,15.60
2023-03-13T08:53:56.464Z,15.70
2023-03-13T08:56:37.125Z,15.70
2023-03-13T08:59:22.907Z,15.70
2023-03-13T09:02:08.762Z,15.70
2023-03-13T09:04:49.801Z,15.80
2023-03-13T09:07:33.529Z,15.80
2023-03-13T09:10:06.651Z,15.80
2023-03-13T09:12:58.579Z,15.80
2023-03-13T09:15:39.622Z,15.80
2023-03-13T09:18:22.488Z,15.90
2023-03-13T09:21:06.796Z,15.90
2023-03-13T09:23:44.462Z,16.00
2023-03-13T09:26:17.750Z,16.00
2023-03-13T09:29:21.248Z,16.10
2023-03-13T09:32:20.728Z,16.20
2023-03-13T09:34:59.836Z,16.20
2023-03-13T09:38:04.488Z,16.30
2023-03-13T09:40:59.680Z,16.40
2023-03-13T09:43:57.388Z,16.40
2023-03-13T09:47:05.697Z,16.40
2023-03-13T09:49:47.537Z,16.40
2023-03-13T09:52:30.059Z,16.40
2023-03-13T09:55:08.133Z,16.40
2023-03-13T09:57:51.724Z,16.50
2023-03-13T10:00:34.869Z,16.50
2023-03-13T10:03:29.478Z,16.60
2023-03-13T10:06:15.432Z,16.60
2023-03-13T10:09:28.354Z,16.60
2023-03-13T10:12:11.080Z,16.70
2023-03-13T10:15:05.754Z,16.70
2023-03-13T10:17:43.000Z,16.80
2023-03-13T10:20:56.230Z,16.90
2023-03-13T10:23:45.974Z,17.00
2023-03-13T10:26:29.590Z,17.10
2023-03-13T10:29:21.855Z,17.20
2023-03-13T10:32:03.372Z,17.30
2023-03-13T10:34:57.632Z,17.40
2023-03-13T10:38:25.827Z,17.50
2023-03-13T10:41:31.285Z,17.60
2023-03-13T10:44:16.643Z,17.60
2023-03-13T10:47:14.122Z,17.50
2023-03-13T10:50:04.514Z,17.50
2023-03-13T10:53:00.583Z,17.50
2023-03-13T10:55:46.428Z,17.50
2023-03-13T10:58:25.507Z,17.60
2023-03-13T11:01:19.198Z,17.60
2023-03-13T11:04:03.018Z,17.80
2023-03-13T11:07:00.528Z,17.80
2023-03-13T11:09:34.657Z,17.90
2023-03-13T11:12:23.515Z,18.00
2023-03-13T11:15:01.625Z,18.10
2023-03-13T11:18:00.127Z,18.20
2023-03-13T11:20:56.548Z,18.30
2023-03-13T11:23:47.645Z,18.40
2023-03-13T11:26:55.113Z,18.50
2023-03-13T11:30:00.511Z,18.60
2023-03-13T11:32:44.827Z,18.70
2023-03-13T11:35:37.631Z,18.80
2023-03-13T11:38:47.170Z,18.90
2023-03-13T11:41:50.088Z,19.00
2023-03-13T11:44:39.440Z,19.20
2023-03-13T11:47:44.146Z,19.40
2023-03-13T11:50:31.450Z,19.50
2023-03-13T11:53:50.184Z,19.70
2023-03-13T11:56:37.390Z,19.90
2023-03-13T11:59:40.318Z,20.10
2023-03-13T12:02:41.590Z,20.20
2023-03-13T12:05:20.119Z,20.30
2023-03-13T12:08:00.933Z,20.20
2023-03-13T12:10:51.901Z,20.30
2023-03-13T12:13:34.823Z,20.20
2023-03-13T12:16:21.541Z,20.20
2023-03-13T12:19:43.609Z,20.20
2023-03-13T12:22:39.571Z,20.20
2023-03-13T12:25:23.200Z,20.20
2023-03-13T12:28:16.154Z,20.20
2023-03-13T12:31:01.662Z,20.20
2023-03-13T12:33:54.819Z,20.30
2023-03-13T12:36:50.398Z,20.30
2023-03-13T12:39:38.209Z,20.40
2023-03-13T12:42:39.137Z,20.40
2023-03-13T12:45:21.968Z,20.40
2023-03-13T12:48:44.895Z,20.50
2023-03-13T12:51:42.936Z,20.50
2023-03-13T12:54:47.963Z,20.60
2023-03-13T12:58:21.605Z,20.50
2023-03-13T13:00:59.722Z,20.50
2023-03-13T13:03:52.380Z,20.50
2023-03-13T13:06:46.922Z,20.50
2023-03-13T13:09:31.259Z,20.50
2023-03-13T13:12:20.329Z,20.50
2023-03-13T13:15:26.470Z,20.60
2023-03-13T13:18:28.415Z,20.70
2023-03-13T13:21:38.727Z,20.80
2023-03-13T13:25:04.023Z,20.80
2023-03-13T13:27:53.293Z,20.80
2023-03-13T13:30:41.794Z,20.90
2023-03-13T13:33:43.142Z,21.00
2023-03-13T13:36:46.041Z,21.00
2023-03-13T13:39:50.466Z,21.10
2023-03-13T13:42:52.150Z,21.20
2023-03-13T13:45:43.215Z,21.50
2023-03-13T13:48:37.261Z,21.80
2023-03-13T13:51:29.049Z,22.20
2023-03-13T13:54:35.866Z,22.50
2023-03-13T13:57:18.416Z,22.80
2023-03-13T14:00:28.759Z,23.10
2023-03-13T14:03:23.739Z,23.50
2023-03-13T14:06:06.755Z,24.00
2023-03-13T14:08:59.806Z,24.10
2023-03-13T14:11:40.442Z,24.30
2023-03-13T14:14:21.153Z,24.30
2023-03-13T14:17:13.984Z,24.40
2023-03-13T14:20:01.321Z,24.40
2023-03-13T14:22:51.920Z,24.30
2023-03-13T14:25:26.713Z,24.40
2023-03-13T14:28:05.880Z,24.40
2023-03-13T14:31:11.106Z,24.40
2023-03-13T14:34:08.069Z,24.30
2023-03-13T14:37:01.455Z,24.20
2023-03-13T14:40:00.751Z,24.20
2023-03-13T14:42:51.843Z,24.20
2023-03-13T14:45:40.270Z,24.20
2023-03-13T14:48:35.490Z,24.10
2023-03-13T14:51:32.522Z,23.90
2023-03-13T14:54:34.381Z,23.70
2023-03-13T14:57:27.758Z,23.60
2023-03-13T15:00:48.613Z,23.70
2023-03-13T15:03:33.949Z,24.10
2023-03-13T15:06:31.813Z,24.70
2023-03-13T15:09:24.591Z,25.20
2023-03-13T15:12:08.635Z,25.70
2023-03-13T15:14:57.018Z,26.10
2023-03-13T15:17:38.095Z,26.40
2023-03-13T15:20:36.924Z,26.70
2023-03-13T15:24:03.900Z,26.90
2023-03-13T15:26:37.986Z,27.00
2023-03-13T15:29:22.489Z,26.70
2023-03-13T15:31:53.954Z,26.30
2023-03-13T15:34:50.731Z,25.90
2023-03-13T15:37:21.619Z,25.40
2023-03-13T15:40:29.719Z,24.90
2023-03-13T15:43:12.220Z,24.50
2023-03-13T15:45:55.520Z,24.10
2023-03-13T15:48:50.331Z,23.80
2023-03-13T15:51:41.234Z,23.50
2023-03-13T15:54:14.235Z,23.30
2023-03-13T15:57:14.904Z,23.10
2023-03-13T16:00:21.531Z,22.80
2023-03-13T16:03:00.381Z,22.60
2023-03-13T16:05:40.962Z,22.30
2023-03-13T16:08:37.335Z,21.90
2023-03-13T16:11:24.890Z,21.60
2023-03-13T16:14:17.017Z,21.10
2023-03-13T16:17:36.186Z,20.70
2023-03-13T16:20:22.181Z,20.30
2023-03-13T16:23:17.273Z,19.70
2023-03-13T16:26:13.809Z,19.10
2023-03-13T16:28:58.146Z,18.50
2023-03-13T16:32:11.043Z,17.90
2023-03-13T16:34:42.008Z,17.50
2023-03-13T16:37:30.442Z,17.10
2023-03-13T16:40:08.807Z,16.80
2023-03-13T16:42:41.106Z,16.50
2023-03-13T16:45:20.691Z,16.30
2023-03-13T16:48:02.454Z,16.20
2023-03-13T16:50:46.913Z,16.00
2023-03-13T16:53:30.907Z,15.90
2023-03-13T16:56:32.156Z,15.90
2023-03-13T16:59:06.955Z,15.80
2023-03-13T17:02:04.035Z,15.80
2023-03-13T17:04:52.631Z,15.70
2023-03-13T17:07:30.458Z,15.70
2023-03-13T17:10:01.851Z,15.70
2023-03-13T17:12:46.615Z,15.70
2023-03-13T17:15:41.665Z,15.70
2023-03-13T17:18:13.820Z,15.60
2023-03-13T17:21:24.599Z,15.60
2023-03-13T17:23:58.738Z,15.50
2023-03-13T17:26:36.019Z,15.50
2023-03-13T17:29:24.156Z,15.40
2023-03-13T17:32:17.086Z,15.40
2023-03-13T17:35:10.859Z,15.30
2023-03-13T17:38:00.185Z,15.30
2023-03-13T17:40:36.700Z,15.30
2023-03-13T17:43:07.508Z,15.20
2023-03-13T17:45:39.170Z,15.20
2023-03-13T17:48:28.215Z,15.10
2023-03-13T17:51:28.812Z,15.10
2023-03-13T17:54:20.513Z,15.10
2023-03-13T17:56:52.758Z,15.10
2023-03-13T17:59:41.046Z,15.10
2023-03-13T18:02:14.774Z,15.10
2023-03-13T18:04:53.994Z,15.10
2023-03-13T18:07:35.911Z,15.10
2023-03-13T18:10:32.282Z,15.00
2023-03-13T18:13:23.467Z,15.00
2023-03-13T18:16:15.432Z,15.00
2023-03-13T18:18:48.197Z,15.00
2023-03-13T18:21:26.460Z,15.00
2023-03-13T18:24:09.117Z,15.00
2023-03-13T18:27:05.670Z,14.90
2023-03-13T18:29:35.668Z,14.90
2023-03-13T18:32:09.144Z,14.90
2023-03-13T18:34:49.464Z,14.90
2023-03-13T18:37:34.585Z,15.00
2023-03-13T18:40:24.917Z,15.00
2023-03-13T18:43:19.250Z,15.00
2023-03-13T18:46:07.270Z,15.00
2023-03-13T18:49:06.902Z,15.00
2023-03-13T18:51:50.479Z,14.90
2023-03-13T18:54:44.748Z,14.90
2023-03-13T18:57:30.546Z,14.90
2023-03-13T19:00:23.573Z,14.90
2023-03-13T19:03:12.250Z,14.90
2023-03-13T19:06:00.637Z,14.90
2023-03-13T19:08:38.973Z,14.90
2023-03-13T19:11:28.168Z,14.90
2023-03-13T19:14:01.817Z,14.90
2023-03-13T19:17:18.957Z,14.90
2023-03-13T19:20:02.110Z,14.90
2023-03-13T19:23:01.333Z,14.90
2023-03-13T19:25:48.945Z,14.90
2023-03-13T19:28:29.371Z,14.90
2023-03-13T19:31:22.432Z,14.80
2023-03-13T19:34:24.987Z,14.80
2023-03-13T19:37:11.707Z,14.80
2023-03-13T19:39:58.133Z,14.80
2023-03-13T19:42:31.886Z,14.80
2023-03-13T19:45:29.757Z,14.70
2023-03-13T19:48:06.736Z,14.70
2023-03-13T19:51:29.883Z,14.60
2023-03-13T19:54:17.070Z,14.50
2023-03-13T19:57:01.760Z,14.50
2023-03-13T19:59:35.620Z,14.40
2023-03-13T20:02:32.793Z,14.40
2023-03-13T20:05:28.622Z,14.30
2023-03-13T20:08:20.012Z,14.30
2023-03-13T20:10:59.998Z,14.30
2023-03-13T20:13:44.507Z,14.20
2023-03-13T20:16:19.834Z,14.20
2023-03-13T20:18:52.638Z,14.20
2023-03-13T20:21:33.037Z,14.10
2023-03-13T20:24:25.690Z,14.10
2023-03-13T20:27:03.175Z,14.00
2023-03-13T20:30:18.793Z,14.00
2023-03-13T20:32:59.251Z,14.00
2023-03-13T20:35:56.590Z,13.90
2023-03-13T20:38:38.356Z,13.90
2023-03-13T20:41:31.543Z,13.80
2023-03-13T20:44:21.737Z,13.70
2023-03-13T20:46:52.238Z,13.70
2023-03-13T20:49:42.999Z,13.70
2023-03-13T20:52:35.978Z,13.60
2023-03-13T20:55:34.171Z,13.60
2023-03-13T20:58:22.804Z,13.60
2023-03-13T21:01:12.239Z,13.50
2023-03-13T21:03:45.427Z,13.50
2023-03-13T21:06:35.889Z,13.50
2023-03-13T21:09:37.173Z,13.40
2023-03-13T21:12:08.312Z,13.40
2023-03-13T21:15:09.837Z,13.30
2023-03-13T21:17:56.788Z,13.30
2023-03-13T21:20:49.330Z,13.20
2023-03-13T21:23:38.600Z,13.20
2023-03-13T21:26:35.905Z,13.10
2023-03-13T21:29:19.892Z,13.10
2023-03-13T21:32:17.852Z,13.00
2023-03-13T21:35:02.431Z,13.00
2023-03-13T21:37:48.947Z,13.00
2023-03-13T21:40:45.802Z,12.90
2023-03-13T21:43:33.121Z,12.90
2023-03-13T21:46:27.252Z,12.80
2023-03-13T21:49:16.198Z,12.80
2023-03-13T21:51:47.788Z,12.80
2023-03-13T21:54:36.942Z,12.80
2023-03-13T21:57:19.518Z,12.80
2023-03-13T21:59:51.087Z,12.80
2023-03-13T22:02:38.589Z,12.80
2023-03-13T22:05:39.903Z,12.80
2023-03-13T22:08:26.676Z,12.80
2023-03-13T22:11:03.919Z,12.90
2023-03-13T22:13:44.628Z,12.90
2023-03-13T22:16:27.306Z,12.90
2023-03-13T22:19:08.440Z,12.90
2023-03-13T22:21:48.363Z,12.90
2023-03-13T22:24:38.602Z,12.90
2023-03-13T22:27:40.373Z,12.90
2023-03-13T22:30:12.880Z,13.00
2023-03-13T22:33:09.666Z,13.00
2023-03-13T22:35:41.050Z,13.00
2023-03-13T22:38:39.379Z,13.00
2023-03-13T22:41:18.630Z,13.00
2023-03-13T22:44:03.934Z,13.00
2023-03-13T22:46:45.004Z,13.00
2023-03-13T22:49:35.689Z,13.00
2023-03-13T22:52:22.949Z,13.00
2023-03-13T22:55:22.003Z,13.10
2023-03-13T22:57:59.313Z,13.10
2023-03-13T23:00:38.069Z,13.10
2023-03-13T23:03:13.217Z,13.20
2023-03-13T23:05:49.675Z,13.20
2023-03-13T23:08:43.941Z,13.20
2023-03-13T23:12:21.847Z,13.30
2023-03-13T23:15:17.278Z,13.30
2023-03-13T23:17:52.555Z,13.30
2023-03-13T23:20:23.391Z,13.30
2023-03-13T23:23:03.378Z,13.30
2023-03-13T23:25:42.095Z,13.30
2023-03-13T23:28:35.410Z,13.30
2023-03-13T23:31:37.231Z,13.30
2023-03-13T23:34:11.468Z,13.30
2023-03-13T23:36:42.356Z,13.40
2023-03-13T23:39:25.129Z,13.30
2023-03-13T23:42:01.221Z,13.40
2023-03-13T23:44:51.553Z,13.40
2023-03-13T23:47:32.610Z,13.40
2023-03-13T23:50:19.892Z,13.40
2023-03-13T23:53:05.387Z,13.40
2023-03-13T23:56:02.037Z,13.40
2023-03-13T23:58:39.955Z,13.40
